sensor_id;sensor_type;location;lat;lon;timestamp;pressure;altitude;pressure_sealevel;temperature;humidity
43450;BME280;29041;42.266;23.110;2024-01-27T00:02:32;96361.31;;;-1.53;100.00
43450;BME280;29041;42.266;23.110;2024-01-27T00:05:19;96399.19;;;-1.31;100.00
43450;BME280;29041;42.266;23.110;2024-01-27T00:08:06;96403.31;;;-1.47;100.00
43450;BME280;29041;42.266;23.110;2024-01-27T00:10:54;96395.31;;;-1.28;100.00
43450;BME280;29041;42.266;23.110;2024-01-27T00:13:41;96376.94;;;-1.11;100.00
43450;BME280;29041;42.266;23.110;2024-01-27T00:16:30;96337.56;;;-1.41;100.00
43450;BME280;29041;42.266;23.110;2024-01-27T00:19:17;96367.34;;;-1.17;100.00
43450;BME280;29041;42.266;23.110;2024-01-27T00:22:04;96365.56;;;-1.00;100.00
43450;BME280;29041;42.266;23.110;2024-01-27T00:24:51;96376.25;;;-0.94;100.00
43450;BME280;29041;42.266;23.110;2024-01-27T00:27:38;96369.84;;;-1.10;100.00
43450;BME280;29041;42.266;23.110;2024-01-27T00:30:46;96373.25;;;-0.98;100.00
43450;BME280;29041;42.266;23.110;2024-01-27T00:33:36;96364.25;;;-1.26;100.00
43450;BME280;29041;42.266;23.110;2024-01-27T00:36:24;96340.97;;;-1.05;100.00
43450;BME280;29041;42.266;23.110;2024-01-27T00:39:12;96337.78;;;-1.31;100.00
43450;BME280;29041;42.266;23.110;2024-01-27T00:42:03;96354.88;;;-1.69;100.00
43450;BME280;29041;42.266;23.110;2024-01-27T00:44:50;96378.81;;;-1.47;100.00
43450;BME280;29041;42.266;23.110;2024-01-27T00:47:38;96386.72;;;-1.35;100.00
43450;BME280;29041;42.266;23.110;2024-01-27T00:50:27;96389.53;;;-1.13;100.00
43450;BME280;29041;42.266;23.110;2024-01-27T00:53:14;96376.63;;;-1.26;100.00
43450;BME280;29041;42.266;23.110;2024-01-27T00:56:01;96396.66;;;-1.14;100.00
43450;BME280;29041;42.266;23.110;2024-01-27T00:58:48;96389.78;;;-1.26;100.00
43450;BME280;29041;42.266;23.110;2024-01-27T01:01:35;96342.63;;;-1.64;100.00
43450;BME280;29041;42.266;23.110;2024-01-27T01:04:23;96375.00;;;-1.63;100.00
43450;BME280;29041;42.266;23.110;2024-01-27T01:07:11;96370.13;;;-1.71;100.00
43450;BME280;29041;42.266;23.110;2024-01-27T01:09:59;96372.41;;;-1.75;100.00
43450;BME280;29041;42.266;23.110;2024-01-27T01:12:46;96382.47;;;-1.60;100.00
43450;BME280;29041;42.266;23.110;2024-01-27T01:15:33;96353.75;;;-1.73;100.00
43450;BME280;29041;42.266;23.110;2024-01-27T01:18:20;96358.31;;;-1.57;100.00
43450;BME280;29041;42.266;23.110;2024-01-27T01:21:07;96365.06;;;-1.73;100.00
43450;BME280;29041;42.266;23.110;2024-01-27T01:23:56;96365.97;;;-1.67;100.00
43450;BME280;29041;42.266;23.110;2024-01-27T01:26:43;96364.47;;;-1.63;100.00
43450;BME280;29041;42.266;23.110;2024-01-27T01:29:30;96342.41;;;-1.74;100.00
43450;BME280;29041;42.266;23.110;2024-01-27T01:32:17;96309.22;;;-1.75;100.00
43450;BME280;29041;42.266;23.110;2024-01-27T01:35:05;96355.44;;;-1.32;100.00
43450;BME280;29041;42.266;23.110;2024-01-27T01:37:52;96345.59;;;-1.60;100.00
43450;BME280;29041;42.266;23.110;2024-01-27T01:45:48;96382.13;;;-1.64;100.00
43450;BME280;29041;42.266;23.110;2024-01-27T01:48:36;96384.16;;;-1.78;100.00
43450;BME280;29041;42.266;23.110;2024-01-27T01:51:26;96378.75;;;-1.12;100.00
43450;BME280;29041;42.266;23.110;2024-01-27T01:54:14;96370.91;;;-1.47;100.00
43450;BME280;29041;42.266;23.110;2024-01-27T01:57:03;96330.03;;;-1.97;100.00
43450;BME280;29041;42.266;23.110;2024-01-27T01:59:54;96339.75;;;-1.74;100.00
43450;BME280;29041;42.266;23.110;2024-01-27T02:02:45;96317.69;;;-2.09;100.00
43450;BME280;29041;42.266;23.110;2024-01-27T02:05:32;96328.09;;;-1.78;100.00
43450;BME280;29041;42.266;23.110;2024-01-27T02:08:21;96351.78;;;-1.66;100.00
43450;BME280;29041;42.266;23.110;2024-01-27T02:11:09;96370.28;;;-1.02;100.00
43450;BME280;29041;42.266;23.110;2024-01-27T02:13:56;96283.69;;;-1.86;100.00
43450;BME280;29041;42.266;23.110;2024-01-27T02:16:44;96301.88;;;-1.61;100.00
43450;BME280;29041;42.266;23.110;2024-01-27T02:19:32;96363.88;;;-1.18;100.00
43450;BME280;29041;42.266;23.110;2024-01-27T02:22:20;96304.97;;;-2.00;100.00
43450;BME280;29041;42.266;23.110;2024-01-27T02:25:08;96315.97;;;-1.79;100.00
43450;BME280;29041;42.266;23.110;2024-01-27T02:27:56;96290.56;;;-1.62;100.00
43450;BME280;29041;42.266;23.110;2024-01-27T02:30:43;96338.94;;;-1.27;100.00
43450;BME280;29041;42.266;23.110;2024-01-27T02:33:30;96297.69;;;-1.21;100.00
43450;BME280;29041;42.266;23.110;2024-01-27T02:36:17;96328.97;;;-1.25;100.00
43450;BME280;29041;42.266;23.110;2024-01-27T02:39:04;96336.59;;;-1.12;100.00
43450;BME280;29041;42.266;23.110;2024-01-27T02:41:53;96300.56;;;-1.35;100.00
43450;BME280;29041;42.266;23.110;2024-01-27T02:44:40;96334.94;;;-0.89;100.00
43450;BME280;29041;42.266;23.110;2024-01-27T02:47:27;96298.56;;;-1.04;100.00
43450;BME280;29041;42.266;23.110;2024-01-27T02:50:15;96316.47;;;-1.30;100.00
43450;BME280;29041;42.266;23.110;2024-01-27T02:53:02;96323.94;;;-1.26;100.00
43450;BME280;29041;42.266;23.110;2024-01-27T02:55:49;96329.03;;;-1.08;100.00
43450;BME280;29041;42.266;23.110;2024-01-27T02:59:03;96321.66;;;-0.94;100.00
43450;BME280;29041;42.266;23.110;2024-01-27T03:01:50;96326.22;;;-1.18;100.00
43450;BME280;29041;42.266;23.110;2024-01-27T03:04:38;96310.03;;;-1.10;100.00
43450;BME280;29041;42.266;23.110;2024-01-27T03:07:25;96309.41;;;-1.29;100.00
43450;BME280;29041;42.266;23.110;2024-01-27T03:10:12;96307.19;;;-1.20;100.00
43450;BME280;29041;42.266;23.110;2024-01-27T03:12:59;96329.09;;;-1.20;100.00
43450;BME280;29041;42.266;23.110;2024-01-27T03:15:48;96329.28;;;-1.21;100.00
43450;BME280;29041;42.266;23.110;2024-01-27T03:18:35;96320.28;;;-1.25;100.00
43450;BME280;29041;42.266;23.110;2024-01-27T03:21:23;96331.84;;;-0.86;100.00
43450;BME280;29041;42.266;23.110;2024-01-27T03:24:10;96337.06;;;-1.03;100.00
43450;BME280;29041;42.266;23.110;2024-01-27T03:26:57;96312.13;;;-0.83;100.00
43450;BME280;29041;42.266;23.110;2024-01-27T03:29:44;96337.66;;;-1.13;100.00
43450;BME280;29041;42.266;23.110;2024-01-27T03:32:33;96335.75;;;-1.29;100.00
43450;BME280;29041;42.266;23.110;2024-01-27T03:35:21;96324.94;;;-1.16;100.00
43450;BME280;29041;42.266;23.110;2024-01-27T03:38:09;96341.00;;;-1.17;100.00
43450;BME280;29041;42.266;23.110;2024-01-27T03:40:56;96336.91;;;-0.96;100.00
43450;BME280;29041;42.266;23.110;2024-01-27T03:43:45;96346.59;;;-0.73;100.00
43450;BME280;29041;42.266;23.110;2024-01-27T03:46:32;96319.78;;;-1.22;100.00
43450;BME280;29041;42.266;23.110;2024-01-27T03:49:21;96280.13;;;-1.56;100.00
43450;BME280;29041;42.266;23.110;2024-01-27T03:52:08;96319.84;;;-1.46;100.00
43450;BME280;29041;42.266;23.110;2024-01-27T03:54:55;96346.25;;;-1.17;100.00
43450;BME280;29041;42.266;23.110;2024-01-27T03:57:42;96322.81;;;-1.31;100.00
43450;BME280;29041;42.266;23.110;2024-01-27T04:00:30;96320.19;;;-1.31;100.00
43450;BME280;29041;42.266;23.110;2024-01-27T04:03:18;96335.97;;;-1.31;100.00
43450;BME280;29041;42.266;23.110;2024-01-27T04:06:07;96292.25;;;-1.44;100.00
43450;BME280;29041;42.266;23.110;2024-01-27T04:08:54;96337.56;;;-0.89;100.00
43450;BME280;29041;42.266;23.110;2024-01-27T04:11:41;96336.72;;;-1.06;100.00
43450;BME280;29041;42.266;23.110;2024-01-27T04:14:28;96322.94;;;-0.97;100.00
43450;BME280;29041;42.266;23.110;2024-01-27T04:17:15;96343.91;;;-0.61;100.00
43450;BME280;29041;42.266;23.110;2024-01-27T04:20:03;96328.31;;;-0.62;100.00
43450;BME280;29041;42.266;23.110;2024-01-27T04:22:52;96343.91;;;-0.32;100.00
43450;BME280;29041;42.266;23.110;2024-01-27T04:25:39;96343.09;;;-0.61;100.00
43450;BME280;29041;42.266;23.110;2024-01-27T04:28:26;96350.34;;;-0.69;100.00
43450;BME280;29041;42.266;23.110;2024-01-27T04:31:15;96348.06;;;-0.65;100.00
43450;BME280;29041;42.266;23.110;2024-01-27T04:34:02;96353.38;;;-0.48;100.00
43450;BME280;29041;42.266;23.110;2024-01-27T04:36:49;96317.47;;;-0.78;100.00
43450;BME280;29041;42.266;23.110;2024-01-27T04:39:39;96337.88;;;-0.73;100.00
43450;BME280;29041;42.266;23.110;2024-01-27T04:42:26;96336.75;;;-0.77;100.00
43450;BME280;29041;42.266;23.110;2024-01-27T04:45:14;96298.94;;;-0.83;100.00
43450;BME280;29041;42.266;23.110;2024-01-27T04:48:02;96339.53;;;-0.55;100.00
43450;BME280;29041;42.266;23.110;2024-01-27T04:50:49;96339.41;;;-0.32;100.00
43450;BME280;29041;42.266;23.110;2024-01-27T04:53:36;96326.38;;;-0.38;100.00
43450;BME280;29041;42.266;23.110;2024-01-27T04:56:25;96310.13;;;-0.47;100.00
43450;BME280;29041;42.266;23.110;2024-01-27T04:59:17;96307.66;;;-0.37;100.00
43450;BME280;29041;42.266;23.110;2024-01-27T05:02:04;96318.47;;;-0.38;100.00
43450;BME280;29041;42.266;23.110;2024-01-27T05:04:51;96307.28;;;-0.45;100.00
43450;BME280;29041;42.266;23.110;2024-01-27T05:07:39;96310.50;;;-0.09;100.00
43450;BME280;29041;42.266;23.110;2024-01-27T05:10:41;96345.59;;;0.08;100.00
43450;BME280;29041;42.266;23.110;2024-01-27T05:13:33;96329.69;;;0.03;100.00
43450;BME280;29041;42.266;23.110;2024-01-27T05:16:20;96348.66;;;0.00;100.00
43450;BME280;29041;42.266;23.110;2024-01-27T05:19:07;96346.78;;;-0.34;100.00
43450;BME280;29041;42.266;23.110;2024-01-27T05:21:55;96318.16;;;-0.42;100.00
43450;BME280;29041;42.266;23.110;2024-01-27T05:24:42;96360.06;;;-0.11;100.00
43450;BME280;29041;42.266;23.110;2024-01-27T05:27:30;96323.00;;;-0.80;100.00
43450;BME280;29041;42.266;23.110;2024-01-27T05:30:18;96309.72;;;-0.85;100.00
43450;BME280;29041;42.266;23.110;2024-01-27T05:33:08;96369.06;;;-0.41;100.00
43450;BME280;29041;42.266;23.110;2024-01-27T05:35:56;96357.97;;;-0.55;100.00
43450;BME280;29041;42.266;23.110;2024-01-27T05:38:43;96376.69;;;-0.28;100.00
43450;BME280;29041;42.266;23.110;2024-01-27T05:41:30;96333.75;;;-0.69;100.00
43450;BME280;29041;42.266;23.110;2024-01-27T05:44:17;96379.69;;;-0.36;100.00
43450;BME280;29041;42.266;23.110;2024-01-27T05:47:06;96388.47;;;-0.47;100.00
43450;BME280;29041;42.266;23.110;2024-01-27T05:49:53;96391.09;;;-0.47;100.00
43450;BME280;29041;42.266;23.110;2024-01-27T05:52:42;96361.97;;;-0.82;100.00
43450;BME280;29041;42.266;23.110;2024-01-27T05:55:29;96359.91;;;-0.51;100.00
43450;BME280;29041;42.266;23.110;2024-01-27T05:58:16;96388.75;;;-0.61;100.00
43450;BME280;29041;42.266;23.110;2024-01-27T06:01:06;96413.44;;;-0.38;100.00
43450;BME280;29041;42.266;23.110;2024-01-27T06:03:55;96391.47;;;-0.97;100.00
43450;BME280;29041;42.266;23.110;2024-01-27T06:06:42;96407.19;;;-0.90;100.00
43450;BME280;29041;42.266;23.110;2024-01-27T06:09:29;96364.16;;;-0.78;100.00
43450;BME280;29041;42.266;23.110;2024-01-27T06:12:17;96374.44;;;-1.30;100.00
43450;BME280;29041;42.266;23.110;2024-01-27T06:15:07;96420.81;;;-1.05;100.00
43450;BME280;29041;42.266;23.110;2024-01-27T06:17:55;96408.84;;;-0.72;100.00
43450;BME280;29041;42.266;23.110;2024-01-27T06:20:44;96392.69;;;-0.75;100.00
43450;BME280;29041;42.266;23.110;2024-01-27T06:23:31;96387.78;;;-0.84;100.00
43450;BME280;29041;42.266;23.110;2024-01-27T06:26:18;96418.75;;;-0.91;100.00
43450;BME280;29041;42.266;23.110;2024-01-27T06:29:07;96422.78;;;-1.24;100.00
43450;BME280;29041;42.266;23.110;2024-01-27T06:31:54;96432.88;;;-1.09;100.00
43450;BME280;29041;42.266;23.110;2024-01-27T06:34:41;96427.69;;;-1.04;100.00
43450;BME280;29041;42.266;23.110;2024-01-27T06:37:29;96448.69;;;-1.21;100.00
43450;BME280;29041;42.266;23.110;2024-01-27T06:40:17;96441.44;;;-0.90;100.00
43450;BME280;29041;42.266;23.110;2024-01-27T06:43:04;96422.53;;;-1.10;100.00
43450;BME280;29041;42.266;23.110;2024-01-27T06:45:51;96437.13;;;-1.20;100.00
43450;BME280;29041;42.266;23.110;2024-01-27T06:48:38;96441.91;;;-1.05;100.00
43450;BME280;29041;42.266;23.110;2024-01-27T06:51:25;96443.50;;;-0.80;100.00
43450;BME280;29041;42.266;23.110;2024-01-27T06:54:14;96450.38;;;-0.91;100.00
43450;BME280;29041;42.266;23.110;2024-01-27T06:57:01;96468.34;;;-0.76;100.00
43450;BME280;29041;42.266;23.110;2024-01-27T06:59:49;96469.28;;;-0.82;100.00
43450;BME280;29041;42.266;23.110;2024-01-27T07:02:38;96479.81;;;-0.94;100.00
43450;BME280;29041;42.266;23.110;2024-01-27T07:05:25;96465.72;;;-1.00;100.00
43450;BME280;29041;42.266;23.110;2024-01-27T07:08:12;96425.84;;;-1.15;100.00
43450;BME280;29041;42.266;23.110;2024-01-27T07:11:01;96484.41;;;-0.66;100.00
43450;BME280;29041;42.266;23.110;2024-01-27T07:13:48;96487.63;;;-0.75;100.00
43450;BME280;29041;42.266;23.110;2024-01-27T07:16:35;96478.91;;;-0.88;100.00
43450;BME280;29041;42.266;23.110;2024-01-27T07:19:22;96497.50;;;-0.83;100.00
43450;BME280;29041;42.266;23.110;2024-01-27T07:22:09;96488.41;;;-0.75;100.00
43450;BME280;29041;42.266;23.110;2024-01-27T07:24:56;96472.75;;;-1.05;100.00
43450;BME280;29041;42.266;23.110;2024-01-27T07:27:45;96489.69;;;-1.01;100.00
43450;BME280;29041;42.266;23.110;2024-01-27T07:30:33;96450.50;;;-0.98;100.00
43450;BME280;29041;42.266;23.110;2024-01-27T07:33:20;96451.66;;;-1.05;100.00
43450;BME280;29041;42.266;23.110;2024-01-27T07:36:07;96459.66;;;-1.00;100.00
43450;BME280;29041;42.266;23.110;2024-01-27T07:38:54;96466.53;;;-1.11;100.00
43450;BME280;29041;42.266;23.110;2024-01-27T07:41:41;96468.25;;;-0.81;100.00
43450;BME280;29041;42.266;23.110;2024-01-27T07:44:31;96458.75;;;-1.06;100.00
43450;BME280;29041;42.266;23.110;2024-01-27T07:47:18;96461.50;;;-1.01;100.00
43450;BME280;29041;42.266;23.110;2024-01-27T07:50:06;96502.28;;;-0.80;100.00
43450;BME280;29041;42.266;23.110;2024-01-27T07:52:55;96490.34;;;-0.58;100.00
43450;BME280;29041;42.266;23.110;2024-01-27T07:55:42;96474.31;;;-0.81;100.00
43450;BME280;29041;42.266;23.110;2024-01-27T07:58:29;96494.63;;;-0.81;100.00
43450;BME280;29041;42.266;23.110;2024-01-27T08:01:19;96529.75;;;-0.40;100.00
43450;BME280;29041;42.266;23.110;2024-01-27T08:04:07;96525.91;;;-0.61;100.00
43450;BME280;29041;42.266;23.110;2024-01-27T08:06:54;96518.09;;;-0.68;100.00
43450;BME280;29041;42.266;23.110;2024-01-27T08:09:41;96522.50;;;-0.33;100.00
43450;BME280;29041;42.266;23.110;2024-01-27T08:12:28;96540.22;;;0.25;100.00
43450;BME280;29041;42.266;23.110;2024-01-27T08:15:16;96546.91;;;-0.13;100.00
43450;BME280;29041;42.266;23.110;2024-01-27T08:18:05;96543.03;;;-0.23;100.00
43450;BME280;29041;42.266;23.110;2024-01-27T08:21:03;96544.03;;;0.29;100.00
43450;BME280;29041;42.266;23.110;2024-01-27T08:23:50;96565.63;;;0.26;100.00
43450;BME280;29041;42.266;23.110;2024-01-27T08:26:37;96567.56;;;-0.10;100.00
43450;BME280;29041;42.266;23.110;2024-01-27T08:29:24;96553.06;;;0.04;100.00
43450;BME280;29041;42.266;23.110;2024-01-27T08:34:43;96582.38;;;-0.09;100.00
43450;BME280;29041;42.266;23.110;2024-01-27T08:37:31;96565.06;;;0.12;100.00
43450;BME280;29041;42.266;23.110;2024-01-27T08:40:29;96560.97;;;0.62;100.00
43450;BME280;29041;42.266;23.110;2024-01-27T08:43:21;96559.47;;;1.00;100.00
43450;BME280;29041;42.266;23.110;2024-01-27T08:46:10;96531.97;;;3.59;100.00
43450;BME280;29041;42.266;23.110;2024-01-27T08:49:04;96536.06;;;2.64;100.00
43450;BME280;29041;42.266;23.110;2024-01-27T08:51:53;96547.13;;;2.29;100.00
43450;BME280;29041;42.266;23.110;2024-01-27T08:54:40;96544.41;;;2.24;100.00
43450;BME280;29041;42.266;23.110;2024-01-27T08:57:28;96544.69;;;2.22;100.00
43450;BME280;29041;42.266;23.110;2024-01-27T09:00:16;96529.03;;;1.98;100.00
43450;BME280;29041;42.266;23.110;2024-01-27T09:03:04;96548.31;;;2.16;100.00
43450;BME280;29041;42.266;23.110;2024-01-27T09:05:52;96550.63;;;2.34;100.00
43450;BME280;29041;42.266;23.110;2024-01-27T09:08:41;96564.16;;;2.60;100.00
43450;BME280;29041;42.266;23.110;2024-01-27T09:11:28;96554.00;;;2.52;100.00
43450;BME280;29041;42.266;23.110;2024-01-27T09:14:15;96529.38;;;2.57;100.00
43450;BME280;29041;42.266;23.110;2024-01-27T09:17:03;96514.97;;;2.75;100.00
43450;BME280;29041;42.266;23.110;2024-01-27T09:19:50;96514.59;;;3.36;100.00
43450;BME280;29041;42.266;23.110;2024-01-27T09:22:39;96545.03;;;3.71;100.00
43450;BME280;29041;42.266;23.110;2024-01-27T09:25:28;96538.75;;;3.88;100.00
43450;BME280;29041;42.266;23.110;2024-01-27T09:28:17;96529.16;;;3.87;100.00
43450;BME280;29041;42.266;23.110;2024-01-27T09:31:04;96529.78;;;4.09;100.00
43450;BME280;29041;42.266;23.110;2024-01-27T09:33:51;96520.91;;;3.78;100.00
43450;BME280;29041;42.266;23.110;2024-01-27T09:36:38;96514.25;;;3.75;100.00
43450;BME280;29041;42.266;23.110;2024-01-27T09:39:36;96515.53;;;3.68;100.00
43450;BME280;29041;42.266;23.110;2024-01-27T09:42:24;96512.34;;;3.65;100.00
43450;BME280;29041;42.266;23.110;2024-01-27T09:45:14;96511.19;;;3.46;100.00
43450;BME280;29041;42.266;23.110;2024-01-27T09:48:03;96537.72;;;3.46;100.00
43450;BME280;29041;42.266;23.110;2024-01-27T09:50:52;96518.56;;;3.33;100.00
43450;BME280;29041;42.266;23.110;2024-01-27T09:53:40;96524.16;;;3.37;100.00
43450;BME280;29041;42.266;23.110;2024-01-27T09:56:27;96523.50;;;3.20;100.00
43450;BME280;29041;42.266;23.110;2024-01-27T09:59:17;96529.63;;;3.20;100.00
43450;BME280;29041;42.266;23.110;2024-01-27T10:02:06;96526.47;;;3.28;100.00
43450;BME280;29041;42.266;23.110;2024-01-27T10:04:56;96523.00;;;3.23;100.00
43450;BME280;29041;42.266;23.110;2024-01-27T10:07:43;96528.72;;;3.09;100.00
43450;BME280;29041;42.266;23.110;2024-01-27T10:10:48;96520.28;;;3.12;100.00
43450;BME280;29041;42.266;23.110;2024-01-27T10:13:37;96501.13;;;3.05;100.00
43450;BME280;29041;42.266;23.110;2024-01-27T10:16:26;96527.44;;;3.12;100.00
43450;BME280;29041;42.266;23.110;2024-01-27T10:19:15;96512.16;;;2.92;100.00
43450;BME280;29041;42.266;23.110;2024-01-27T10:22:03;96501.63;;;2.69;100.00
43450;BME280;29041;42.266;23.110;2024-01-27T10:24:51;96525.19;;;2.66;100.00
43450;BME280;29041;42.266;23.110;2024-01-27T10:27:38;96531.50;;;2.87;100.00
43450;BME280;29041;42.266;23.110;2024-01-27T10:30:25;96524.09;;;2.57;100.00
43450;BME280;29041;42.266;23.110;2024-01-27T10:33:14;96539.50;;;2.65;100.00
43450;BME280;29041;42.266;23.110;2024-01-27T10:36:01;96545.59;;;2.60;100.00
43450;BME280;29041;42.266;23.110;2024-01-27T10:38:48;96541.19;;;2.71;100.00
43450;BME280;29041;42.266;23.110;2024-01-27T10:41:35;96536.88;;;2.97;100.00
43450;BME280;29041;42.266;23.110;2024-01-27T10:44:25;96539.00;;;2.68;100.00
43450;BME280;29041;42.266;23.110;2024-01-27T10:47:16;96546.19;;;3.00;100.00
43450;BME280;29041;42.266;23.110;2024-01-27T10:50:08;96549.72;;;3.11;100.00
43450;BME280;29041;42.266;23.110;2024-01-27T10:52:57;96549.72;;;3.11;100.00
43450;BME280;29041;42.266;23.110;2024-01-27T10:55:45;96552.25;;;3.33;100.00
43450;BME280;29041;42.266;23.110;2024-01-27T10:58:34;96549.94;;;3.42;100.00
43450;BME280;29041;42.266;23.110;2024-01-27T11:01:28;96546.56;;;3.62;100.00
43450;BME280;29041;42.266;23.110;2024-01-27T11:04:19;96538.59;;;3.62;100.00
43450;BME280;29041;42.266;23.110;2024-01-27T11:07:09;96547.84;;;3.49;100.00
43450;BME280;29041;42.266;23.110;2024-01-27T11:09:56;96523.88;;;3.39;100.00
43450;BME280;29041;42.266;23.110;2024-01-27T11:12:43;96554.72;;;3.50;100.00
43450;BME280;29041;42.266;23.110;2024-01-27T11:15:32;96567.47;;;3.48;100.00
43450;BME280;29041;42.266;23.110;2024-01-27T11:18:19;96572.72;;;3.38;100.00
43450;BME280;29041;42.266;23.110;2024-01-27T11:21:13;96568.47;;;3.37;100.00
43450;BME280;29041;42.266;23.110;2024-01-27T11:24:12;96580.63;;;3.27;100.00
43450;BME280;29041;42.266;23.110;2024-01-27T11:27:00;96552.94;;;3.18;100.00
43450;BME280;29041;42.266;23.110;2024-01-27T11:29:48;96580.19;;;3.41;100.00
43450;BME280;29041;42.266;23.110;2024-01-27T11:32:36;96583.91;;;3.07;100.00
43450;BME280;29041;42.266;23.110;2024-01-27T11:35:23;96586.94;;;3.21;100.00
43450;BME280;29041;42.266;23.110;2024-01-27T11:38:10;96556.50;;;2.96;100.00
43450;BME280;29041;42.266;23.110;2024-01-27T11:41:00;96593.47;;;3.08;100.00
43450;BME280;29041;42.266;23.110;2024-01-27T11:43:51;96609.88;;;3.38;100.00
43450;BME280;29041;42.266;23.110;2024-01-27T11:46:38;96621.22;;;3.28;100.00
43450;BME280;29041;42.266;23.110;2024-01-27T11:49:33;96616.50;;;3.35;100.00
43450;BME280;29041;42.266;23.110;2024-01-27T11:52:20;96619.47;;;3.44;100.00
43450;BME280;29041;42.266;23.110;2024-01-27T11:55:08;96633.75;;;3.32;100.00
43450;BME280;29041;42.266;23.110;2024-01-27T11:57:56;96618.69;;;3.43;100.00
43450;BME280;29041;42.266;23.110;2024-01-27T12:00:44;96625.59;;;3.44;100.00
43450;BME280;29041;42.266;23.110;2024-01-27T12:03:32;96621.50;;;3.31;100.00
43450;BME280;29041;42.266;23.110;2024-01-27T12:06:19;96627.25;;;3.56;100.00
43450;BME280;29041;42.266;23.110;2024-01-27T12:09:06;96625.81;;;3.75;100.00
43450;BME280;29041;42.266;23.110;2024-01-27T12:11:57;96612.44;;;3.60;100.00
43450;BME280;29041;42.266;23.110;2024-01-27T12:14:47;96625.06;;;3.85;100.00
43450;BME280;29041;42.266;23.110;2024-01-27T12:17:34;96630.63;;;3.41;100.00
43450;BME280;29041;42.266;23.110;2024-01-27T12:20:28;96616.69;;;3.61;100.00
43450;BME280;29041;42.266;23.110;2024-01-27T12:23:15;96619.50;;;3.92;100.00
43450;BME280;29041;42.266;23.110;2024-01-27T12:26:02;96619.59;;;4.07;100.00
43450;BME280;29041;42.266;23.110;2024-01-27T12:28:49;96617.00;;;4.23;100.00
43450;BME280;29041;42.266;23.110;2024-01-27T12:31:38;96607.19;;;4.28;100.00
43450;BME280;29041;42.266;23.110;2024-01-27T12:34:25;96601.47;;;4.68;100.00
43450;BME280;29041;42.266;23.110;2024-01-27T12:37:13;96590.22;;;4.40;100.00
43450;BME280;29041;42.266;23.110;2024-01-27T12:40:00;96591.38;;;4.80;100.00
43450;BME280;29041;42.266;23.110;2024-01-27T12:42:47;96597.78;;;5.46;100.00
43450;BME280;29041;42.266;23.110;2024-01-27T12:45:34;96610.16;;;6.28;98.91
43450;BME280;29041;42.266;23.110;2024-01-27T12:48:23;96603.41;;;7.60;89.79
43450;BME280;29041;42.266;23.110;2024-01-27T12:51:10;96601.53;;;7.32;87.97
43450;BME280;29041;42.266;23.110;2024-01-27T12:53:57;96586.63;;;7.55;85.49
43450;BME280;29041;42.266;23.110;2024-01-27T12:56:44;96589.38;;;6.15;88.49
43450;BME280;29041;42.266;23.110;2024-01-27T12:59:31;96579.69;;;7.24;88.14
43450;BME280;29041;42.266;23.110;2024-01-27T13:02:18;96570.63;;;7.20;83.60
43450;BME280;29041;42.266;23.110;2024-01-27T13:05:08;96562.97;;;7.67;81.63
43450;BME280;29041;42.266;23.110;2024-01-27T13:07:55;96593.94;;;7.44;81.04
43450;BME280;29041;42.266;23.110;2024-01-27T13:10:48;96578.84;;;7.58;79.70
43450;BME280;29041;42.266;23.110;2024-01-27T13:13:35;96570.66;;;7.15;80.58
43450;BME280;29041;42.266;23.110;2024-01-27T13:16:22;96571.78;;;6.69;83.57
43450;BME280;29041;42.266;23.110;2024-01-27T13:19:09;96571.19;;;7.76;80.28
43450;BME280;29041;42.266;23.110;2024-01-27T13:21:58;96569.75;;;8.08;80.46
43450;BME280;29041;42.266;23.110;2024-01-27T13:24:46;96562.63;;;9.04;76.36
43450;BME280;29041;42.266;23.110;2024-01-27T13:27:33;96575.72;;;8.24;79.41
43450;BME280;29041;42.266;23.110;2024-01-27T13:30:21;96569.72;;;7.30;82.56
43450;BME280;29041;42.266;23.110;2024-01-27T13:33:08;96576.72;;;7.26;83.29
43450;BME280;29041;42.266;23.110;2024-01-27T13:35:55;96565.00;;;7.22;82.74
43450;BME280;29041;42.266;23.110;2024-01-27T13:38:44;96579.72;;;6.79;85.51
43450;BME280;29041;42.266;23.110;2024-01-27T13:41:34;96578.75;;;7.39;82.60
43450;BME280;29041;42.266;23.110;2024-01-27T13:44:21;96595.59;;;7.93;79.22
43450;BME280;29041;42.266;23.110;2024-01-27T13:47:08;96602.56;;;6.96;82.13
43450;BME280;29041;42.266;23.110;2024-01-27T13:49:57;96569.41;;;7.02;81.12
43450;BME280;29041;42.266;23.110;2024-01-27T13:52:44;96585.97;;;7.04;84.04
43450;BME280;29041;42.266;23.110;2024-01-27T13:55:39;96558.69;;;7.12;81.68
43450;BME280;29041;42.266;23.110;2024-01-27T13:58:28;96569.78;;;6.45;83.80
43450;BME280;29041;42.266;23.110;2024-01-27T14:01:17;96555.25;;;6.67;83.84
43450;BME280;29041;42.266;23.110;2024-01-27T14:04:04;96574.03;;;6.51;82.85
43450;BME280;29041;42.266;23.110;2024-01-27T14:06:54;96597.13;;;6.16;83.86
43450;BME280;29041;42.266;23.110;2024-01-27T14:09:43;96583.84;;;6.01;83.64
43450;BME280;29041;42.266;23.110;2024-01-27T14:12:32;96585.44;;;5.92;84.00
43450;BME280;29041;42.266;23.110;2024-01-27T14:15:19;96591.75;;;6.22;83.41
43450;BME280;29041;42.266;23.110;2024-01-27T14:18:06;96558.56;;;5.72;83.88
43450;BME280;29041;42.266;23.110;2024-01-27T14:20:55;96609.75;;;5.49;86.07
43450;BME280;29041;42.266;23.110;2024-01-27T14:23:42;96596.19;;;5.30;85.57
43450;BME280;29041;42.266;23.110;2024-01-27T14:26:29;96582.63;;;5.00;86.82
43450;BME280;29041;42.266;23.110;2024-01-27T14:29:18;96616.91;;;4.91;86.99
43450;BME280;29041;42.266;23.110;2024-01-27T14:32:06;96577.00;;;4.91;85.66
43450;BME280;29041;42.266;23.110;2024-01-27T14:34:53;96570.59;;;4.56;87.03
43450;BME280;29041;42.266;23.110;2024-01-27T14:37:40;96611.31;;;4.83;86.86
43450;BME280;29041;42.266;23.110;2024-01-27T14:40:27;96586.81;;;4.50;87.21
43450;BME280;29041;42.266;23.110;2024-01-27T14:43:17;96624.94;;;5.12;85.07